createdAt,value
2023-05-25T00:02:24.481Z,5.60
2023-05-25T00:04:52.074Z,5.60
2023-05-25T00:07:19.362Z,5.60
2023-05-25T00:09:46.835Z,5.40
2023-05-25T00:12:14.536Z,5.20
2023-05-25T00:14:41.309Z,5.10
2023-05-25T00:17:09.983Z,5.20
2023-05-25T00:19:38.071Z,5.10
2023-05-25T00:22:04.976Z,5.00
2023-05-25T00:24:31.890Z,4.90
2023-05-25T00:26:58.732Z,4.70
2023-05-25T00:29:26.001Z,4.70
2023-05-25T00:31:53.383Z,4.70
2023-05-25T00:34:20.776Z,4.70
2023-05-25T00:36:48.773Z,4.70
2023-05-25T00:39:19.580Z,4.70
2023-05-25T00:41:47.582Z,4.80
2023-05-25T00:44:15.827Z,4.80
2023-05-25T00:46:49.091Z,4.80
2023-05-25T00:49:18.326Z,4.70
2023-05-25T00:51:46.630Z,4.80
2023-05-25T00:54:15.155Z,4.90
2023-05-25T00:57:02.441Z,4.80
2023-05-25T00:59:35.657Z,4.60
2023-05-25T01:02:07.537Z,4.50
2023-05-25T01:04:36.826Z,4.50
2023-05-25T01:07:06.864Z,4.50
2023-05-25T01:09:35.090Z,4.40
2023-05-25T01:12:03.677Z,4.40
2023-05-25T01:14:31.230Z,4.40
2023-05-25T01:16:58.902Z,4.40
2023-05-25T01:19:25.754Z,4.30
2023-05-25T01:22:04.964Z,4.30
2023-05-25T01:24:40.752Z,4.40
2023-05-25T01:27:22.292Z,4.30
2023-05-25T01:29:49.540Z,4.20
2023-05-25T01:32:18.227Z,4.40
2023-05-25T01:34:46.697Z,4.20
2023-05-25T01:37:13.827Z,4.20
2023-05-25T01:39:41.256Z,4.20
2023-05-25T01:42:08.368Z,4.20
2023-05-25T01:44:36.262Z,4.30
2023-05-25T01:47:16.599Z,4.40
2023-05-25T01:49:49.988Z,4.40
2023-05-25T01:52:24.254Z,4.20
2023-05-25T01:55:03.233Z,4.20
2023-05-25T01:57:34.427Z,4.30
2023-05-25T02:00:03.627Z,4.20
2023-05-25T02:02:43.138Z,4.10
2023-05-25T02:05:11.433Z,4.10
2023-05-25T02:07:38.446Z,4.10
2023-05-25T02:10:05.876Z,4.20
2023-05-25T02:12:32.576Z,4.10
2023-05-25T02:14:59.258Z,4.00
2023-05-25T02:17:27.877Z,3.90
2023-05-25T02:19:54.896Z,3.80
2023-05-25T02:22:22.406Z,3.80
2023-05-25T02:24:49.131Z,3.80
2023-05-25T02:27:15.949Z,3.80
2023-05-25T02:29:43.568Z,3.70
2023-05-25T02:32:10.257Z,3.70
2023-05-25T02:34:36.947Z,3.80
2023-05-25T02:37:04.258Z,3.70
2023-05-25T02:39:31.154Z,3.70
2023-05-25T02:41:59.070Z,3.70
2023-05-25T02:44:26.645Z,3.60
2023-05-25T02:46:53.459Z,3.60
2023-05-25T02:49:20.397Z,3.50
2023-05-25T02:51:47.998Z,3.40
2023-05-25T02:54:14.751Z,3.40
2023-05-25T02:56:42.437Z,3.40
2023-05-25T02:59:09.412Z,3.40
2023-05-25T03:01:36.267Z,3.50
2023-05-25T03:04:03.527Z,3.50
2023-05-25T03:06:36.469Z,3.50
2023-05-25T03:09:09.610Z,3.50
2023-05-25T03:11:37.928Z,3.40
2023-05-25T03:14:05.340Z,3.40
2023-05-25T03:16:36.471Z,3.30
2023-05-25T03:19:05.356Z,3.30
2023-05-25T03:21:34.178Z,3.30
2023-05-25T03:24:00.878Z,3.60
2023-05-25T03:26:28.870Z,3.50
2023-05-25T03:28:56.376Z,3.50
2023-05-25T03:31:23.453Z,3.50
2023-05-25T03:33:50.306Z,3.50
2023-05-25T03:36:18.293Z,3.60
2023-05-25T03:38:44.996Z,3.50
2023-05-25T03:41:11.686Z,3.50
2023-05-25T03:43:38.642Z,3.60
2023-05-25T03:46:07.084Z,3.50
2023-05-25T03:48:33.942Z,3.50
2023-05-25T03:51:00.582Z,3.60
2023-05-25T03:53:27.305Z,3.60
2023-05-25T03:55:54.332Z,3.60
2023-05-25T03:58:21.120Z,3.60
2023-05-25T04:00:51.478Z,3.70
2023-05-25T04:03:18.856Z,3.60
2023-05-25T04:05:46.390Z,3.50
2023-05-25T04:08:17.931Z,3.60
2023-05-25T04:10:47.784Z,3.50
2023-05-25T04:13:14.554Z,3.50
2023-05-25T04:15:41.498Z,3.60
2023-05-25T04:18:19.110Z,3.60
2023-05-25T04:20:47.617Z,3.60
2023-05-25T04:23:15.890Z,3.70
2023-05-25T04:25:45.296Z,4.00
2023-05-25T04:28:12.523Z,3.90
2023-05-25T04:30:57.596Z,4.00
2023-05-25T04:33:47.509Z,4.10
2023-05-25T04:36:24.916Z,4.20
2023-05-25T04:38:54.722Z,4.20
2023-05-25T04:41:22.631Z,4.30
2023-05-25T04:44:06.858Z,4.30
2023-05-25T04:46:37.225Z,4.50
2023-05-25T04:49:05.507Z,4.70
2023-05-25T04:51:32.435Z,4.90
2023-05-25T04:53:59.774Z,5.00
2023-05-25T04:56:26.724Z,5.10
2023-05-25T04:58:53.735Z,5.20
2023-05-25T05:01:20.870Z,5.40
2023-05-25T05:03:48.417Z,5.80
2023-05-25T05:06:15.316Z,6.10
2023-05-25T05:08:42.625Z,6.50
2023-05-25T05:11:09.344Z,6.90
2023-05-25T05:13:36.054Z,7.30
2023-05-25T05:16:03.259Z,7.60
2023-05-25T05:18:30.035Z,7.80
2023-05-25T05:20:57.022Z,7.90
2023-05-25T05:23:24.276Z,8.00
2023-05-25T05:25:50.981Z,8.20
2023-05-25T05:28:27.185Z,8.50
2023-05-25T05:30:54.270Z,8.80
2023-05-25T05:33:23.777Z,8.90
2023-05-25T05:35:52.396Z,9.10
2023-05-25T05:38:21.884Z,9.30
2023-05-25T05:40:48.653Z,9.60
2023-05-25T05:43:19.932Z,9.90
2023-05-25T05:45:47.115Z,10.20
2023-05-25T05:48:14.462Z,10.30
2023-05-25T05:50:42.384Z,10.50
2023-05-25T05:53:10.948Z,10.70
2023-05-25T05:55:37.878Z,10.80
2023-05-25T05:58:04.736Z,10.80
2023-05-25T06:00:32.106Z,10.80
2023-05-25T06:03:00.444Z,10.50
2023-05-25T06:05:28.984Z,10.40
2023-05-25T06:07:56.453Z,10.50
2023-05-25T06:10:23.289Z,10.50
2023-05-25T06:12:50.188Z,10.60
2023-05-25T06:15:16.981Z,10.80
2023-05-25T06:17:48.400Z,10.90
2023-05-25T06:20:16.119Z,10.90
2023-05-25T06:22:43.041Z,10.90
2023-05-25T06:25:10.663Z,10.80
2023-05-25T06:27:38.117Z,10.60
2023-05-25T06:30:05.683Z,10.60
2023-05-25T06:32:32.532Z,10.80
2023-05-25T06:34:59.314Z,11.00
2023-05-25T06:37:27.733Z,11.10
2023-05-25T06:39:56.925Z,11.20
2023-05-25T06:42:24.307Z,11.20
2023-05-25T06:44:55.442Z,11.00
2023-05-25T06:47:22.177Z,11.10
2023-05-25T06:49:49.491Z,11.20
2023-05-25T06:52:16.221Z,11.10
2023-05-25T06:54:42.889Z,10.90
2023-05-25T06:57:09.725Z,10.80
2023-05-25T06:59:36.385Z,10.80
2023-05-25T07:02:03.089Z,10.80
2023-05-25T07:04:29.803Z,10.90
2023-05-25T07:06:56.533Z,11.00
2023-05-25T07:09:23.184Z,11.00
2023-05-25T07:11:49.923Z,11.00
2023-05-25T07:14:17.442Z,10.90
2023-05-25T07:16:45.105Z,10.90
2023-05-25T07:19:11.899Z,11.10
2023-05-25T07:21:38.783Z,11.00
2023-05-25T07:24:05.757Z,11.10
2023-05-25T07:26:34.524Z,11.10
2023-05-25T07:29:01.263Z,11.20
2023-05-25T07:31:28.037Z,11.30
2023-05-25T07:33:56.117Z,11.20
2023-05-25T07:36:24.813Z,11.30
2023-05-25T07:38:51.712Z,11.10
2023-05-25T07:41:18.442Z,11.20
2023-05-25T07:43:45.692Z,11.40
2023-05-25T07:46:12.430Z,11.50
2023-05-25T07:48:39.301Z,11.50
2023-05-25T07:51:05.980Z,11.50
2023-05-25T07:53:32.652Z,11.70
2023-05-25T07:55:59.428Z,11.90
2023-05-25T07:58:26.257Z,11.90
2023-05-25T08:00:52.945Z,11.90
2023-05-25T08:03:31.941Z,12.20
2023-05-25T08:06:07.377Z,12.40
2023-05-25T08:08:34.809Z,12.50
2023-05-25T08:11:02.379Z,12.50
2023-05-25T08:13:29.048Z,12.50
2023-05-25T08:15:55.790Z,12.20
2023-05-25T08:18:22.914Z,11.90
2023-05-25T08:20:49.610Z,11.80
2023-05-25T08:23:16.364Z,11.60
2023-05-25T08:25:43.125Z,11.50
2023-05-25T08:28:09.889Z,11.50
2023-05-25T08:30:36.700Z,11.50
2023-05-25T08:33:03.630Z,11.40
2023-05-25T08:35:30.491Z,11.50
2023-05-25T08:37:57.133Z,11.70
2023-05-25T08:40:27.929Z,11.80
2023-05-25T08:42:54.581Z,11.90
2023-05-25T08:45:34.156Z,12.00
2023-05-25T08:48:06.676Z,12.10
2023-05-25T08:50:34.364Z,12.00
2023-05-25T08:53:03.094Z,12.00
2023-05-25T08:55:33.852Z,12.00
2023-05-25T08:58:32.456Z,12.00
2023-05-25T09:01:04.088Z,11.70
2023-05-25T09:03:31.727Z,11.80
2023-05-25T09:05:59.520Z,11.60
2023-05-25T09:08:27.157Z,11.60
2023-05-25T09:10:56.366Z,11.70
2023-05-25T09:13:23.337Z,11.70
2023-05-25T09:15:51.895Z,11.80
2023-05-25T09:18:18.825Z,11.80
2023-05-25T09:20:47.250Z,11.70
2023-05-25T09:23:15.076Z,11.70
2023-05-25T09:25:42.435Z,11.80
2023-05-25T09:28:25.394Z,11.90
2023-05-25T09:30:53.885Z,11.90
2023-05-25T09:33:21.341Z,12.10
2023-05-25T09:35:48.629Z,11.90
2023-05-25T09:38:16.649Z,11.80
2023-05-25T09:40:44.267Z,11.70
2023-05-25T09:43:17.196Z,11.70
2023-05-25T09:45:49.356Z,11.90
2023-05-25T09:48:16.232Z,12.00
2023-05-25T09:50:43.569Z,12.10
2023-05-25T09:53:11.684Z,12.10
2023-05-25T09:55:52.248Z,11.90
2023-05-25T09:58:23.858Z,11.80
2023-05-25T10:00:56.064Z,12.00
2023-05-25T10:03:22.963Z,12.10
2023-05-25T10:05:50.100Z,12.10
2023-05-25T10:08:19.834Z,12.20
2023-05-25T10:10:49.725Z,12.30
2023-05-25T10:13:22.493Z,12.40
2023-05-25T10:15:53.483Z,12.40
2023-05-25T10:18:26.111Z,12.30
2023-05-25T10:21:02.772Z,12.50
2023-05-25T10:23:41.644Z,12.50
2023-05-25T10:26:09.359Z,12.20
2023-05-25T10:28:37.811Z,12.10
2023-05-25T10:31:05.649Z,12.00
2023-05-25T10:33:33.527Z,12.10
2023-05-25T10:36:10.036Z,12.00
2023-05-25T10:38:40.222Z,12.00
2023-05-25T10:41:09.650Z,12.00
2023-05-25T10:43:40.363Z,12.10
2023-05-25T10:46:07.900Z,12.20
2023-05-25T10:48:46.827Z,12.30
2023-05-25T10:51:14.221Z,12.20
2023-05-25T10:54:00.347Z,12.20
2023-05-25T10:56:27.089Z,12.20
2023-05-25T10:58:53.805Z,12.20
2023-05-25T11:01:20.747Z,12.30
2023-05-25T11:03:48.171Z,12.30
2023-05-25T11:06:16.845Z,12.30
2023-05-25T11:08:56.557Z,12.30
2023-05-25T11:11:43.328Z,12.40
2023-05-25T11:14:23.605Z,12.40
2023-05-25T11:17:24.436Z,12.50
2023-05-25T11:19:54.068Z,12.50
2023-05-25T11:22:22.926Z,12.50
2023-05-25T11:24:51.401Z,12.60
2023-05-25T11:27:29.095Z,12.60
2023-05-25T11:29:57.614Z,12.50
2023-05-25T11:32:26.025Z,12.50
2023-05-25T11:34:53.942Z,12.60
2023-05-25T11:37:22.114Z,12.70
2023-05-25T11:39:49.767Z,12.80
2023-05-25T11:42:17.427Z,13.00
2023-05-25T11:44:44.346Z,13.00
2023-05-25T11:47:14.199Z,12.90
2023-05-25T11:49:42.285Z,13.20
2023-05-25T11:52:09.915Z,13.10
2023-05-25T11:54:36.763Z,13.20
2023-05-25T11:57:03.736Z,13.40
2023-05-25T11:59:32.403Z,13.40
2023-05-25T12:02:04.179Z,13.70
2023-05-25T12:04:34.774Z,13.90
2023-05-25T12:07:06.657Z,13.70
2023-05-25T12:09:34.231Z,13.70
2023-05-25T12:12:04.176Z,13.80
2023-05-25T12:14:31.247Z,13.60
2023-05-25T12:16:58.562Z,13.50
2023-05-25T12:19:25.662Z,13.70
2023-05-25T12:21:52.985Z,14.00
2023-05-25T12:24:19.866Z,14.20
2023-05-25T12:26:57.263Z,14.60
2023-05-25T12:29:25.460Z,14.70
2023-05-25T12:31:52.488Z,14.50
2023-05-25T12:34:20.281Z,14.40
2023-05-25T12:36:52.312Z,14.40
2023-05-25T12:39:34.731Z,14.50
2023-05-25T12:42:02.317Z,14.20
2023-05-25T12:44:36.683Z,13.90
2023-05-25T12:47:19.638Z,13.70
2023-05-25T12:49:54.295Z,13.80
2023-05-25T12:52:37.660Z,14.20
2023-05-25T12:55:27.927Z,14.40
2023-05-25T12:57:59.025Z,14.60
2023-05-25T13:00:36.672Z,14.60
2023-05-25T13:03:05.216Z,14.70
2023-05-25T13:05:35.058Z,13.70
2023-05-25T13:08:02.931Z,13.60
2023-05-25T13:10:30.667Z,13.80
2023-05-25T13:12:58.421Z,14.20
2023-05-25T13:15:26.839Z,14.50
2023-05-25T13:17:54.861Z,14.80
2023-05-25T13:20:24.747Z,15.00
2023-05-25T13:22:53.112Z,15.10
2023-05-25T13:25:21.886Z,15.10
2023-05-25T13:27:51.417Z,15.10
2023-05-25T13:30:20.644Z,15.10
2023-05-25T13:32:49.530Z,14.90
2023-05-25T13:35:36.541Z,15.00
2023-05-25T13:38:03.748Z,15.20
2023-05-25T13:40:30.425Z,15.40
2023-05-25T13:42:57.572Z,15.00
2023-05-25T13:45:24.241Z,15.10
2023-05-25T13:47:51.492Z,15.10
2023-05-25T13:50:18.610Z,15.20
2023-05-25T13:52:45.260Z,15.20
2023-05-25T13:55:12.157Z,15.10
2023-05-25T13:57:38.811Z,15.20
2023-05-25T14:00:07.550Z,15.30
2023-05-25T14:02:35.137Z,15.40
2023-05-25T14:05:02.063Z,15.30
2023-05-25T14:07:28.766Z,15.30
2023-05-25T14:09:57.065Z,15.50
2023-05-25T14:12:24.797Z,15.40
2023-05-25T14:14:51.686Z,15.40
2023-05-25T14:17:18.464Z,15.40
2023-05-25T14:19:45.276Z,15.70
2023-05-25T14:22:14.414Z,15.70
2023-05-25T14:24:42.022Z,15.70
2023-05-25T14:27:09.362Z,16.10
2023-05-25T14:29:37.097Z,16.30
2023-05-25T14:32:04.059Z,15.90
2023-05-25T14:34:30.776Z,15.70
2023-05-25T14:36:57.485Z,15.40
2023-05-25T14:39:24.208Z,15.70
2023-05-25T14:41:50.908Z,16.10
2023-05-25T14:44:18.104Z,16.20
2023-05-25T14:46:44.834Z,16.40
2023-05-25T14:49:11.648Z,16.40
2023-05-25T14:51:38.445Z,16.10
2023-05-25T14:54:07.157Z,15.90
2023-05-25T14:56:34.977Z,15.50
2023-05-25T14:59:01.784Z,15.10
2023-05-25T15:01:29.300Z,15.20
2023-05-25T15:03:56.468Z,15.30
2023-05-25T15:06:23.431Z,15.50
2023-05-25T15:08:50.176Z,15.50
2023-05-25T15:11:17.904Z,15.70
2023-05-25T15:13:44.836Z,15.90
2023-05-25T15:16:15.983Z,15.90
2023-05-25T15:18:43.388Z,15.90
2023-05-25T15:21:10.489Z,15.90
2023-05-25T15:23:37.419Z,15.40
2023-05-25T15:26:05.553Z,15.50
2023-05-25T15:28:32.402Z,15.40
2023-05-25T15:31:02.304Z,15.50
2023-05-25T15:33:49.603Z,15.50
2023-05-25T15:36:19.027Z,15.50
2023-05-25T15:38:48.809Z,15.30
2023-05-25T15:41:16.657Z,15.30
2023-05-25T15:43:51.437Z,15.50
2023-05-25T15:46:18.550Z,15.50
2023-05-25T15:48:45.488Z,15.50
2023-05-25T15:51:12.612Z,15.50
2023-05-25T15:53:39.590Z,15.60
2023-05-25T15:56:06.445Z,15.60
2023-05-25T15:58:34.809Z,15.60
2023-05-25T16:01:01.757Z,15.80
2023-05-25T16:03:29.407Z,15.70
2023-05-25T16:05:56.488Z,15.30
2023-05-25T16:08:23.646Z,15.10
2023-05-25T16:10:50.494Z,15.30
2023-05-25T16:13:17.202Z,15.40
2023-05-25T16:15:44.479Z,15.30
2023-05-25T16:18:11.527Z,15.40
2023-05-25T16:20:38.423Z,15.40
2023-05-25T16:23:05.237Z,15.40
2023-05-25T16:25:31.932Z,15.50
2023-05-25T16:27:58.605Z,15.70
2023-05-25T16:30:25.292Z,15.60
2023-05-25T16:32:52.366Z,15.50
2023-05-25T16:35:19.914Z,15.10
2023-05-25T16:37:46.616Z,15.00
2023-05-25T16:40:13.313Z,14.60
2023-05-25T16:42:40.000Z,14.50
2023-05-25T16:45:07.271Z,14.30
2023-05-25T16:47:33.928Z,14.30
2023-05-25T16:50:00.678Z,14.20
2023-05-25T16:52:27.330Z,14.30
2023-05-25T16:54:55.178Z,14.30
2023-05-25T16:57:22.009Z,14.50
2023-05-25T16:59:48.710Z,14.60
2023-05-25T17:02:15.426Z,14.80
2023-05-25T17:04:42.173Z,14.70
2023-05-25T17:07:08.856Z,14.70
2023-05-25T17:09:35.670Z,14.70
2023-05-25T17:12:03.504Z,14.70
2023-05-25T17:14:30.425Z,14.70
2023-05-25T17:16:57.085Z,14.60
2023-05-25T17:19:23.766Z,14.90
2023-05-25T17:21:50.549Z,14.80
2023-05-25T17:24:18.000Z,14.90
2023-05-25T17:26:46.333Z,14.80
2023-05-25T17:29:12.992Z,14.70
2023-05-25T17:31:39.695Z,14.80
2023-05-25T17:34:06.497Z,15.00
2023-05-25T17:36:33.139Z,15.00
2023-05-25T17:38:59.857Z,15.00
2023-05-25T17:41:27.497Z,14.90
2023-05-25T17:43:54.181Z,14.80
2023-05-25T17:46:21.476Z,14.70
2023-05-25T17:48:48.441Z,14.60
2023-05-25T17:51:15.361Z,14.70
2023-05-25T17:53:42.097Z,14.90
2023-05-25T17:56:08.892Z,15.00
2023-05-25T17:58:36.138Z,15.00
2023-05-25T18:01:03.189Z,14.90
2023-05-25T18:03:30.135Z,14.50
2023-05-25T18:05:57.011Z,14.30
2023-05-25T18:08:23.680Z,14.30
2023-05-25T18:10:51.474Z,14.10
2023-05-25T18:13:18.148Z,14.10
2023-05-25T18:15:45.068Z,13.90
2023-05-25T18:18:14.526Z,13.80
2023-05-25T18:20:41.504Z,13.80
2023-05-25T18:23:08.599Z,14.00
2023-05-25T18:25:35.344Z,14.00
2023-05-25T18:28:02.014Z,14.00
2023-05-25T18:30:28.750Z,14.10
2023-05-25T18:32:55.624Z,14.10
2023-05-25T18:35:22.372Z,14.00
2023-05-25T18:37:49.055Z,14.00
2023-05-25T18:40:16.276Z,13.90
2023-05-25T18:42:43.153Z,13.80
2023-05-25T18:45:10.094Z,13.80
2023-05-25T18:47:36.761Z,13.70
2023-05-25T18:50:04.330Z,13.70
2023-05-25T18:52:31.090Z,13.60
2023-05-25T18:54:58.252Z,13.50
2023-05-25T18:57:24.921Z,13.40
2023-05-25T18:59:52.065Z,13.20
2023-05-25T19:02:18.887Z,13.10
2023-05-25T19:04:45.577Z,13.00
2023-05-25T19:07:12.801Z,12.90
2023-05-25T19:09:39.568Z,12.70
2023-05-25T19:12:07.250Z,12.60
2023-05-25T19:14:34.143Z,12.40
2023-05-25T19:17:01.151Z,12.30
2023-05-25T19:19:27.862Z,12.20
2023-05-25T19:21:54.537Z,12.00
2023-05-25T19:24:21.413Z,11.80
2023-05-25T19:26:49.807Z,11.80
2023-05-25T19:29:16.876Z,11.60
2023-05-25T19:31:43.585Z,11.50
2023-05-25T19:34:10.426Z,11.40
2023-05-25T19:36:37.085Z,11.40
2023-05-25T19:39:04.771Z,11.30
2023-05-25T19:41:31.873Z,11.20
2023-05-25T19:43:59.029Z,11.10
2023-05-25T19:46:25.845Z,10.90
2023-05-25T19:48:53.312Z,10.80
2023-05-25T19:51:20.009Z,10.70
2023-05-25T19:53:47.897Z,10.60
2023-05-25T19:56:14.652Z,10.70
2023-05-25T19:58:41.327Z,10.60
2023-05-25T20:01:08.682Z,10.70
2023-05-25T20:03:35.723Z,10.70
2023-05-25T20:06:02.469Z,10.70
2023-05-25T20:08:29.499Z,10.70
2023-05-25T20:10:56.274Z,10.70
2023-05-25T20:13:24.893Z,10.80
2023-05-25T20:15:51.672Z,10.70
2023-05-25T20:18:19.005Z,10.70
2023-05-25T20:20:46.105Z,10.70
2023-05-25T20:23:12.974Z,10.60
2023-05-25T20:25:39.759Z,10.70
2023-05-25T20:28:06.818Z,10.70
2023-05-25T20:30:33.511Z,10.70
2023-05-25T20:33:00.411Z,10.70
2023-05-25T20:35:29.122Z,10.60
2023-05-25T20:37:55.991Z,10.40
2023-05-25T20:40:22.666Z,10.30
2023-05-25T20:42:49.395Z,10.10
2023-05-25T20:45:16.499Z,10.00
2023-05-25T20:47:43.353Z,10.00
2023-05-25T20:50:10.317Z,9.80
2023-05-25T20:52:37.016Z,9.80
2023-05-25T20:55:04.012Z,9.80
2023-05-25T20:57:30.865Z,9.60
2023-05-25T20:59:59.748Z,9.50
2023-05-25T21:02:27.964Z,9.50
2023-05-25T21:04:54.717Z,9.30
2023-05-25T21:07:21.388Z,9.20
2023-05-25T21:09:48.153Z,9.30
2023-05-25T21:12:14.922Z,9.20
2023-05-25T21:14:41.647Z,9.20
2023-05-25T21:17:08.341Z,9.00
2023-05-25T21:19:35.011Z,8.90
2023-05-25T21:22:02.451Z,8.80
2023-05-25T21:24:29.101Z,8.70
2023-05-25T21:26:56.176Z,8.70
2023-05-25T21:29:22.914Z,8.70
2023-05-25T21:31:49.732Z,8.70
2023-05-25T21:34:16.454Z,8.70
2023-05-25T21:36:43.571Z,8.60
2023-05-25T21:39:10.591Z,8.50
2023-05-25T21:41:37.542Z,8.50
2023-05-25T21:44:04.293Z,8.50
2023-05-25T21:46:31.059Z,8.50
2023-05-25T21:48:57.840Z,8.40
2023-05-25T21:51:24.510Z,8.20
2023-05-25T21:53:51.326Z,8.20
2023-05-25T21:56:17.984Z,8.20
2023-05-25T21:58:44.665Z,8.10
2023-05-25T22:01:11.778Z,8.00
2023-05-25T22:03:38.629Z,8.00
2023-05-25T22:06:05.430Z,7.90
2023-05-25T22:08:32.112Z,8.00
2023-05-25T22:10:58.761Z,7.90
2023-05-25T22:13:25.459Z,7.80
2023-05-25T22:15:52.397Z,7.90
2023-05-25T22:18:19.276Z,7.80
2023-05-25T22:20:46.149Z,8.00
2023-05-25T22:23:13.145Z,8.10
2023-05-25T22:25:39.880Z,8.00
2023-05-25T22:28:06.609Z,8.00
2023-05-25T22:30:33.365Z,8.10
2023-05-25T22:33:00.313Z,8.10
2023-05-25T22:35:27.005Z,8.00
2023-05-25T22:37:53.725Z,8.00
2023-05-25T22:40:20.511Z,7.90
2023-05-25T22:42:50.120Z,7.90
2023-05-25T22:45:20.996Z,7.90
2023-05-25T22:47:48.211Z,7.90
2023-05-25T22:50:14.957Z,7.90
2023-05-25T22:52:41.648Z,7.90
2023-05-25T22:55:09.362Z,7.90
2023-05-25T22:57:36.030Z,7.80
2023-05-25T23:00:04.225Z,7.80
2023-05-25T23:02:31.223Z,7.80
2023-05-25T23:04:57.995Z,7.70
2023-05-25T23:07:24.641Z,7.60
2023-05-25T23:09:51.502Z,7.60
2023-05-25T23:12:18.241Z,7.50
2023-05-25T23:14:44.934Z,7.50
2023-05-25T23:17:11.586Z,7.50
2023-05-25T23:19:38.727Z,7.50
2023-05-25T23:22:05.388Z,7.60
2023-05-25T23:24:32.060Z,7.60
2023-05-25T23:26:58.708Z,7.50
2023-05-25T23:29:25.366Z,7.40
2023-05-25T23:31:52.112Z,7.40
2023-05-25T23:34:18.938Z,7.40
2023-05-25T23:36:45.858Z,7.30
2023-05-25T23:39:12.925Z,7.30
2023-05-25T23:41:39.655Z,7.40
2023-05-25T23:44:06.401Z,7.30
2023-05-25T23:46:33.603Z,7.40
2023-05-25T23:49:00.273Z,7.30
2023-05-25T23:51:27.197Z,7.30
2023-05-25T23:53:53.957Z,7.50
2023-05-25T23:56:21.824Z,7.30
2023-05-25T23:58:48.611Z,7.30
